Time;durP1;ratioP1;P1;durP2;ratioP2;P2;SDS_P1;SDS_P2;PMS_P1;PMS_P2;Temp;Humidity;BMP_temperature;BMP_pressure;BME280_temperature;BME280_humidity;BME280_pressure;Samples;Min_cycle;Max_cycle;Signal;HPM_P1;HPM_P2
2023/10/20 00:01:36;;;;;;;15.83;10.07;;;;;;;;;;2612278;54;20404;-75
2023/10/20 00:04:03;;;;;;;13.83;10.03;;;;;;;;;;2610814;47;20896;-76
2023/10/20 00:06:29;;;;;;;13.13;10.20;;;;;;;;;;2612181;39;20788;-76
2023/10/20 00:08:58;;;;;;;16.20;10.90;;;;;;;;;;2612849;31;20866;-76
2023/10/20 00:11:25;;;;;;;29.30;12.70;;;;;;;;;;2612222;54;20418;-76
2023/10/20 00:13:52;;;;;;;14.63;11.37;;;;;;;;;;2612633;54;20442;-76
2023/10/20 00:16:25;;;;;;;14.83;11.63;;;;;;;;;;2612527;39;20688;-77
2023/10/20 00:18:51;;;;;;;12.20;10.60;;;;;;;;;;2612285;54;20426;-76
2023/10/20 00:21:18;;;;;;;13.50;10.53;;;;;;;;;;2611348;54;20933;-76
2023/10/20 00:23:44;;;;;;;18.63;11.30;;;;;;;;;;2610622;54;20400;-77
2023/10/20 00:26:11;;;;;;;12.03;9.97;;;;;;;;;;2610199;54;20407;-76
2023/10/20 00:28:37;;;;;;;13.70;11.20;;;;;;;;;;2610578;54;20404;-76
2023/10/20 00:31:03;;;;;;;13.70;10.20;;;;;;;;;;2612237;54;20462;-76
2023/10/20 00:33:29;;;;;;;12.53;9.80;;;;;;;;;;2612639;54;20466;-77
2023/10/20 00:35:55;;;;;;;15.40;10.80;;;;;;;;;;2611567;54;20486;-76
2023/10/20 00:38:21;;;;;;;13.77;10.70;;;;;;;;;;2611596;54;20519;-76
2023/10/20 00:40:48;;;;;;;13.67;11.57;;;;;;;;;;2611678;54;20407;-76
2023/10/20 00:43:15;;;;;;;15.87;10.80;;;;;;;;;;2611995;54;20396;-76
2023/10/20 00:45:44;;;;;;;12.50;10.17;;;;;;;;;;2612322;54;21241;-77
2023/10/20 00:48:11;;;;;;;17.33;10.73;;;;;;;;;;2612581;54;20454;-76
2023/10/20 00:50:38;;;;;;;12.60;9.70;;;;;;;;;;2612269;54;20416;-77
2023/10/20 00:53:05;;;;;;;14.33;11.00;;;;;;;;;;2612480;39;20817;-78
2023/10/20 00:55:32;;;;;;;14.03;10.53;;;;;;;;;;2610629;54;20431;-76
2023/10/20 00:57:58;;;;;;;15.27;10.90;;;;;;;;;;2612140;31;20888;-76
2023/10/20 01:00:24;;;;;;;13.50;11.70;;;;;;;;;;2611544;54;20403;-76
2023/10/20 01:02:52;;;;;;;16.13;11.80;;;;;;;;;;2611356;54;20391;-76
2023/10/20 01:05:24;;;;;;;21.67;12.60;;;;;;;;;;2611582;47;20427;-76
2023/10/20 01:07:51;;;;;;;22.70;11.70;;;;;;;;;;2612339;54;20459;-76
2023/10/20 01:10:17;;;;;;;16.83;11.93;;;;;;;;;;2611907;39;21226;-76
2023/10/20 01:12:43;;;;;;;16.70;12.23;;;;;;;;;;2612442;54;20428;-75
2023/10/20 01:15:09;;;;;;;14.50;11.97;;;;;;;;;;2612537;54;20515;-76
2023/10/20 01:17:36;;;;;;;17.30;11.30;;;;;;;;;;2612369;54;20427;-76
2023/10/20 01:20:05;;;;;;;15.30;11.77;;;;;;;;;;2610529;54;20415;-76
2023/10/20 01:22:32;;;;;;;18.63;12.10;;;;;;;;;;2610800;47;20566;-76
2023/10/20 01:24:58;;;;;;;18.67;13.27;;;;;;;;;;2611572;47;20408;-76
2023/10/20 01:27:24;;;;;;;15.57;11.33;;;;;;;;;;2611257;54;20502;-76
2023/10/20 01:29:51;;;;;;;21.30;12.83;;;;;;;;;;2609908;54;20460;-76
2023/10/20 01:32:17;;;;;;;24.80;13.50;;;;;;;;;;2610799;54;20442;-76
2023/10/20 01:34:43;;;;;;;17.53;11.50;;;;;;;;;;2611401;47;20478;-76
2023/10/20 01:37:11;;;;;;;15.27;11.90;;;;;;;;;;2611990;54;20794;-76
2023/10/20 01:39:44;;;;;;;18.40;14.40;;;;;;;;;;2612431;54;20380;-76
2023/10/20 01:42:11;;;;;;;18.73;11.97;;;;;;;;;;2611514;47;20419;-76
2023/10/20 01:44:37;;;;;;;16.83;12.93;;;;;;;;;;2611303;54;20570;-76
2023/10/20 01:47:04;;;;;;;20.50;12.27;;;;;;;;;;2610328;54;20413;-76
2023/10/20 01:49:30;;;;;;;16.73;13.17;;;;;;;;;;2610639;54;20409;-76
2023/10/20 01:51:56;;;;;;;27.63;14.83;;;;;;;;;;2610522;54;20534;-76
2023/10/20 01:54:22;;;;;;;21.63;12.77;;;;;;;;;;2610793;54;20423;-76
2023/10/20 01:56:49;;;;;;;17.83;12.53;;;;;;;;;;2612021;54;20450;-76
2023/10/20 01:59:15;;;;;;;22.27;12.57;;;;;;;;;;2612248;54;20421;-75
2023/10/20 02:01:41;;;;;;;16.20;13.37;;;;;;;;;;2611286;54;20416;-75
2023/10/20 02:04:07;;;;;;;19.20;12.47;;;;;;;;;;2610247;54;20424;-75
2023/10/20 02:06:34;;;;;;;16.80;12.37;;;;;;;;;;2613210;39;20786;-75
2023/10/20 02:09:01;;;;;;;19.70;13.97;;;;;;;;;;2612214;54;20387;-76
2023/10/20 02:11:27;;;;;;;19.70;13.70;;;;;;;;;;2612406;54;20419;-74
2023/10/20 02:13:53;;;;;;;22.27;13.23;;;;;;;;;;2610954;54;20397;-75
2023/10/20 02:16:19;;;;;;;20.20;13.93;;;;;;;;;;2610636;39;20807;-75
2023/10/20 02:18:45;;;;;;;19.43;14.47;;;;;;;;;;2612094;31;20821;-76
2023/10/20 02:21:12;;;;;;;20.97;15.47;;;;;;;;;;2610428;47;20438;-75
2023/10/20 02:23:39;;;;;;;20.20;14.03;;;;;;;;;;2610456;54;20419;-74
2023/10/20 02:26:06;;;;;;;17.30;13.97;;;;;;;;;;2610984;54;20395;-74
2023/10/20 02:28:33;;;;;;;20.87;13.90;;;;;;;;;;2611503;54;21013;-74
2023/10/20 02:31:00;;;;;;;26.37;15.83;;;;;;;;;;2612355;39;20783;-74
2023/10/20 02:33:26;;;;;;;24.47;15.17;;;;;;;;;;2612732;54;20419;-76
2023/10/20 02:35:54;;;;;;;19.90;15.83;;;;;;;;;;2611047;47;20474;-75
2023/10/20 02:38:20;;;;;;;19.03;14.30;;;;;;;;;;2610974;54;20420;-76
2023/10/20 02:40:50;;;;;;;21.50;14.63;;;;;;;;;;2611471;39;20850;-74
2023/10/20 02:43:16;;;;;;;19.30;14.43;;;;;;;;;;2610749;54;20420;-76
2023/10/20 02:45:49;;;;;;;20.47;14.73;;;;;;;;;;2611016;54;21523;-75
2023/10/20 02:48:16;;;;;;;19.17;13.00;;;;;;;;;;2612210;54;20566;-74
2023/10/20 02:50:42;;;;;;;22.43;15.00;;;;;;;;;;2612302;39;20825;-75
2023/10/20 02:53:08;;;;;;;24.07;16.50;;;;;;;;;;2611613;54;20996;-74
2023/10/20 02:55:34;;;;;;;26.37;16.30;;;;;;;;;;2611410;46;20450;-75
2023/10/20 02:58:00;;;;;;;25.27;17.13;;;;;;;;;;2611857;47;20405;-75
2023/10/20 03:00:27;;;;;;;20.27;14.50;;;;;;;;;;2611742;54;20399;-77
2023/10/20 03:02:54;;;;;;;21.50;15.10;;;;;;;;;;2612389;54;20479;-76
2023/10/20 03:05:20;;;;;;;20.23;14.77;;;;;;;;;;2612373;39;20511;-74
2023/10/20 03:07:47;;;;;;;19.47;14.90;;;;;;;;;;2612326;54;21212;-76
2023/10/20 03:10:13;;;;;;;29.40;15.60;;;;;;;;;;2611473;46;20429;-74
2023/10/20 03:12:39;;;;;;;21.20;14.50;;;;;;;;;;2610707;47;20424;-74
2023/10/20 03:15:07;;;;;;;21.33;15.00;;;;;;;;;;2612421;54;21224;-78
2023/10/20 03:17:33;;;;;;;25.60;16.23;;;;;;;;;;2612192;54;20547;-77
2023/10/20 03:20:00;;;;;;;22.57;14.77;;;;;;;;;;2612403;54;20403;-79
2023/10/20 03:22:27;;;;;;;24.43;15.20;;;;;;;;;;2611933;54;20447;-78
2023/10/20 03:24:54;;;;;;;18.47;15.20;;;;;;;;;;2612143;47;20404;-79
2023/10/20 03:27:20;;;;;;;20.13;16.63;;;;;;;;;;2611492;54;20470;-79
2023/10/20 03:29:46;;;;;;;21.77;15.43;;;;;;;;;;2611184;54;20416;-79
2023/10/20 03:32:12;;;;;;;21.30;16.00;;;;;;;;;;2612195;54;20410;-79
2023/10/20 03:34:38;;;;;;;23.80;16.50;;;;;;;;;;2612390;54;20548;-78
2023/10/20 03:37:04;;;;;;;22.07;16.03;;;;;;;;;;2612675;54;20464;-79
2023/10/20 03:39:33;;;;;;;24.37;15.77;;;;;;;;;;2611532;47;20535;-78
2023/10/20 03:41:59;;;;;;;21.17;15.87;;;;;;;;;;2611835;47;20423;-79
2023/10/20 03:44:25;;;;;;;19.40;13.97;;;;;;;;;;2611273;54;20447;-78
2023/10/20 03:46:56;;;;;;;20.40;14.80;;;;;;;;;;2611252;54;20417;-79
2023/10/20 03:49:23;;;;;;;18.37;14.00;;;;;;;;;;2610906;54;20467;-79
2023/10/20 03:51:51;;;;;;;19.50;15.17;;;;;;;;;;2610341;39;20782;-78
2023/10/20 03:54:18;;;;;;;20.77;14.53;;;;;;;;;;2610711;47;20431;-77
2023/10/20 03:56:45;;;;;;;23.80;15.60;;;;;;;;;;2612213;54;20416;-79
2023/10/20 03:59:14;;;;;;;20.70;14.20;;;;;;;;;;2611343;47;20424;-78
2023/10/20 04:01:40;;;;;;;24.23;17.10;;;;;;;;;;2611831;39;20806;-78
2023/10/20 04:04:10;;;;;;;20.43;15.00;;;;;;;;;;2611113;46;20431;-77
2023/10/20 04:06:43;;;;;;;24.60;15.50;;;;;;;;;;2612419;54;20419;-78
2023/10/20 04:09:10;;;;;;;24.83;15.30;;;;;;;;;;2612026;54;20442;-78
2023/10/20 04:11:37;;;;;;;20.37;15.17;;;;;;;;;;2612731;39;20817;-77
2023/10/20 04:14:05;;;;;;;26.83;17.70;;;;;;;;;;2612167;39;20847;-79
2023/10/20 04:16:37;;;;;;;22.73;17.07;;;;;;;;;;2612194;54;20396;-78
2023/10/20 04:19:04;;;;;;;23.07;17.60;;;;;;;;;;2612156;54;20428;-77
2023/10/20 04:21:32;;;;;;;29.47;18.00;;;;;;;;;;2612420;39;20841;-77
2023/10/20 04:23:58;;;;;;;25.83;18.60;;;;;;;;;;2611945;39;20530;-75
2023/10/20 04:26:24;;;;;;;22.67;16.47;;;;;;;;;;2612090;54;20542;-75
2023/10/20 04:29:03;;;;;;;26.60;17.70;;;;;;;;;;2612049;54;20431;-76
2023/10/20 05:07:58;;;;;;;31.57;20.07;;;;;;;;;;2612203;54;20425;-76
2023/10/20 05:10:24;;;;;;;30.77;21.00;;;;;;;;;;2612025;54;20392;-76
2023/10/20 05:12:51;;;;;;;27.87;20.67;;;;;;;;;;2612039;47;20408;-76
2023/10/20 05:15:18;;;;;;;31.77;22.27;;;;;;;;;;2611916;54;20400;-76
2023/10/20 05:17:46;;;;;;;31.43;22.33;;;;;;;;;;2611376;54;21008;-76
2023/10/20 05:20:15;;;;;;;32.80;21.47;;;;;;;;;;2612000;47;20446;-76
2023/10/20 05:22:42;;;;;;;32.50;21.53;;;;;;;;;;2611491;39;20948;-80
2023/10/20 05:25:11;;;;;;;33.30;23.33;;;;;;;;;;2612118;54;20435;-81
2023/10/20 05:27:37;;;;;;;32.70;22.33;;;;;;;;;;2611162;54;20396;-76
2023/10/20 05:30:04;;;;;;;34.17;22.50;;;;;;;;;;2610081;54;20419;-82
2023/10/20 05:32:33;;;;;;;29.20;22.13;;;;;;;;;;2610185;39;20854;-76
2023/10/20 05:34:59;;;;;;;32.53;22.83;;;;;;;;;;2610337;54;20476;-73
2023/10/20 05:37:25;;;;;;;33.10;23.53;;;;;;;;;;2609484;39;21077;-75
2023/10/20 05:39:51;;;;;;;31.27;23.87;;;;;;;;;;2610112;54;20419;-74
2023/10/20 05:42:18;;;;;;;29.17;20.67;;;;;;;;;;2609314;54;20404;-73
2023/10/20 05:45:03;;;;;;;29.90;22.43;;;;;;;;;;2609311;47;20427;-73
2023/10/20 05:47:32;;;;;;;29.67;22.27;;;;;;;;;;2610767;39;20804;-74
2023/10/20 05:49:59;;;;;;;37.80;24.40;;;;;;;;;;2611283;54;20423;-75
2023/10/20 05:52:25;;;;;;;31.10;21.50;;;;;;;;;;2611030;54;20566;-75
2023/10/20 05:54:53;;;;;;;33.37;22.80;;;;;;;;;;2610035;47;20465;-76
2023/10/20 05:57:19;;;;;;;30.43;23.77;;;;;;;;;;2604288;54;20471;-74
2023/10/20 05:59:46;;;;;;;29.23;22.40;;;;;;;;;;2608799;46;20427;-73
2023/10/20 06:02:12;;;;;;;27.50;22.33;;;;;;;;;;2609438;54;20408;-74
2023/10/20 06:04:38;;;;;;;32.20;22.50;;;;;;;;;;2609706;54;20407;-72
2023/10/20 06:07:05;;;;;;;32.33;21.40;;;;;;;;;;2611714;54;20388;-72
2023/10/20 06:09:31;;;;;;;36.23;21.80;;;;;;;;;;2611308;39;21207;-72
2023/10/20 06:11:57;;;;;;;27.67;21.03;;;;;;;;;;2611209;39;21547;-73
2023/10/20 06:14:26;;;;;;;27.47;21.13;;;;;;;;;;2611883;54;20962;-72
2023/10/20 06:16:53;;;;;;;28.67;22.50;;;;;;;;;;2611586;54;20412;-72
2023/10/20 06:19:19;;;;;;;27.43;21.67;;;;;;;;;;2611870;54;20408;-72
2023/10/20 06:21:46;;;;;;;29.20;21.77;;;;;;;;;;2611735;54;20411;-73
2023/10/20 06:24:12;;;;;;;30.63;22.40;;;;;;;;;;2611772;54;20423;-74
2023/10/20 06:26:38;;;;;;;28.73;21.27;;;;;;;;;;2610803;54;20415;-73
2023/10/20 06:34:34;;;;;;;31.37;21.53;;;;;;;;;;2610349;46;20482;-71
2023/10/20 06:37:08;;;;;;;29.30;21.27;;;;;;;;;;2609697;47;20448;-73
2023/10/20 06:39:37;;;;;;;34.80;23.33;;;;;;;;;;2609166;54;20416;-73
2023/10/20 06:42:06;;;;;;;30.37;20.90;;;;;;;;;;2609931;54;20447;-73
2023/10/20 06:44:34;;;;;;;38.40;21.63;;;;;;;;;;2610291;54;20495;-75
2023/10/20 06:47:00;;;;;;;29.50;22.27;;;;;;;;;;2610247;47;21536;-75
2023/10/20 06:49:26;;;;;;;29.37;22.53;;;;;;;;;;2610853;39;20937;-75
2023/10/20 06:51:52;;;;;;;26.90;22.43;;;;;;;;;;2610277;54;20396;-75
2023/10/20 06:54:18;;;;;;;31.17;23.50;;;;;;;;;;2610248;54;20551;-75
2023/10/20 06:56:45;;;;;;;29.57;22.70;;;;;;;;;;2609349;54;20434;-75
2023/10/20 06:59:13;;;;;;;29.87;23.37;;;;;;;;;;2609849;54;20407;-74
2023/10/20 07:01:40;;;;;;;30.70;21.90;;;;;;;;;;2608931;54;20439;-74
2023/10/20 07:04:08;;;;;;;27.43;22.43;;;;;;;;;;2610222;39;20828;-73
2023/10/20 07:06:36;;;;;;;27.10;22.63;;;;;;;;;;2609950;48;20434;-73
2023/10/20 07:09:11;;;;;;;29.73;21.00;;;;;;;;;;2610865;54;20404;-75
2023/10/20 07:11:37;;;;;;;28.53;20.93;;;;;;;;;;2611352;54;20422;-75
2023/10/20 07:14:05;;;;;;;29.40;21.07;;;;;;;;;;2611300;54;20532;-74
2023/10/20 07:16:31;;;;;;;28.57;20.67;;;;;;;;;;2610993;54;20427;-74
2023/10/20 07:18:57;;;;;;;28.80;19.77;;;;;;;;;;2611403;54;20423;-74
2023/10/20 07:21:23;;;;;;;27.90;19.80;;;;;;;;;;2610915;50;20435;-74
2023/10/20 07:23:49;;;;;;;27.90;18.97;;;;;;;;;;2610777;47;20443;-74
2023/10/20 07:26:17;;;;;;;21.77;16.87;;;;;;;;;;2611546;54;20508;-76
2023/10/20 07:28:44;;;;;;;27.00;19.87;;;;;;;;;;2610911;54;21320;-75
2023/10/20 07:31:11;;;;;;;22.63;18.07;;;;;;;;;;2610543;47;20403;-74
2023/10/20 07:33:37;;;;;;;25.90;18.13;;;;;;;;;;2611536;54;20423;-75
2023/10/20 07:36:05;;;;;;;19.17;16.87;;;;;;;;;;2611046;47;20447;-74
2023/10/20 07:38:31;;;;;;;20.50;16.87;;;;;;;;;;2611259;54;20498;-74
2023/10/20 07:40:57;;;;;;;18.87;16.80;;;;;;;;;;2611284;54;20411;-75
2023/10/20 07:43:23;;;;;;;19.63;15.50;;;;;;;;;;2612230;54;20447;-74
2023/10/20 07:45:50;;;;;;;21.40;16.70;;;;;;;;;;2611704;54;20392;-74
2023/10/20 07:48:16;;;;;;;16.73;14.80;;;;;;;;;;2611162;54;20518;-75
2023/10/20 07:50:42;;;;;;;20.20;15.37;;;;;;;;;;2610520;54;21023;-75
2023/10/20 07:53:08;;;;;;;16.17;14.17;;;;;;;;;;2611324;54;20958;-74
2023/10/20 07:55:34;;;;;;;16.63;14.20;;;;;;;;;;2611617;54;20426;-73
2023/10/20 07:58:00;;;;;;;16.33;13.37;;;;;;;;;;2611360;47;20940;-73
2023/10/20 08:00:26;;;;;;;15.00;13.40;;;;;;;;;;2611093;54;20437;-73
2023/10/20 08:02:53;;;;;;;17.17;13.00;;;;;;;;;;2611116;54;21323;-73
2023/10/20 08:05:19;;;;;;;13.03;11.70;;;;;;;;;;2610547;47;20558;-73
2023/10/20 08:07:48;;;;;;;14.23;12.73;;;;;;;;;;2610705;47;21386;-73
2023/10/20 08:10:14;;;;;;;12.97;11.57;;;;;;;;;;2609993;51;20427;-72
2023/10/20 08:12:40;;;;;;;15.40;12.23;;;;;;;;;;2611168;54;20387;-72
2023/10/20 08:15:08;;;;;;;12.60;11.30;;;;;;;;;;2612224;39;20812;-73
2023/10/20 08:17:34;;;;;;;12.17;10.87;;;;;;;;;;2610448;47;20423;-73
2023/10/20 08:20:00;;;;;;;12.20;10.30;;;;;;;;;;2612139;54;21057;-74
2023/10/20 08:22:26;;;;;;;14.10;11.53;;;;;;;;;;2613014;39;20895;-73
2023/10/20 08:24:52;;;;;;;13.80;10.43;;;;;;;;;;2612227;54;20973;-73
2023/10/20 08:27:18;;;;;;;10.87;9.40;;;;;;;;;;2611646;46;20418;-73
2023/10/20 08:29:48;;;;;;;10.60;8.87;;;;;;;;;;2611994;54;20565;-73
2023/10/20 08:32:14;;;;;;;10.90;9.70;;;;;;;;;;2611510;54;21291;-73
2023/10/20 08:34:40;;;;;;;10.60;9.20;;;;;;;;;;2611513;54;20443;-73
2023/10/20 08:37:07;;;;;;;11.00;9.70;;;;;;;;;;2612088;54;20426;-72
2023/10/20 08:39:34;;;;;;;13.33;8.87;;;;;;;;;;2611470;54;20434;-73
2023/10/20 08:42:02;;;;;;;12.03;9.50;;;;;;;;;;2611071;54;20656;-72
2023/10/20 08:44:30;;;;;;;17.70;9.30;;;;;;;;;;2611478;54;20503;-73
2023/10/20 08:46:57;;;;;;;9.83;8.83;;;;;;;;;;2612504;54;20410;-73
2023/10/20 08:49:24;;;;;;;10.37;9.07;;;;;;;;;;2611704;54;20443;-73
2023/10/20 08:51:50;;;;;;;9.73;8.83;;;;;;;;;;2611053;54;20415;-73
2023/10/20 08:54:19;;;;;;;9.70;8.57;;;;;;;;;;2611684;39;21100;-74
2023/10/20 08:56:45;;;;;;;9.60;8.00;;;;;;;;;;2611831;54;20403;-73
2023/10/20 08:59:11;;;;;;;9.30;8.10;;;;;;;;;;2611238;54;20431;-73
2023/10/20 09:01:37;;;;;;;9.63;7.60;;;;;;;;;;2611991;54;20415;-73
2023/10/20 09:04:04;;;;;;;9.60;7.70;;;;;;;;;;2611597;50;20527;-74
2023/10/20 09:06:30;;;;;;;9.43;7.77;;;;;;;;;;2612221;54;20411;-74
2023/10/20 09:08:58;;;;;;;12.03;7.57;;;;;;;;;;2612417;54;20411;-74
2023/10/20 09:11:31;;;;;;;8.33;7.60;;;;;;;;;;2612619;54;20937;-76
2023/10/20 09:13:58;;;;;;;10.23;7.70;;;;;;;;;;2612685;54;20495;-75
2023/10/20 09:16:25;;;;;;;7.77;7.00;;;;;;;;;;2612859;54;20882;-75
2023/10/20 09:18:52;;;;;;;8.77;7.80;;;;;;;;;;2611756;47;20427;-75
2023/10/20 09:21:19;;;;;;;8.50;7.70;;;;;;;;;;2611637;54;20408;-75
2023/10/20 09:24:04;;;;;;;8.53;7.60;;;;;;;;;;2612330;54;20420;-76
2023/10/20 09:26:32;;;;;;;8.67;7.30;;;;;;;;;;2612996;54;20972;-74
2023/10/20 09:28:58;;;;;;;8.60;6.67;;;;;;;;;;2612836;54;20399;-74
2023/10/20 09:31:25;;;;;;;8.17;7.37;;;;;;;;;;2612765;54;20400;-75
2023/10/20 09:33:51;;;;;;;8.87;8.00;;;;;;;;;;2612718;54;20523;-76
2023/10/20 09:36:18;;;;;;;7.87;6.70;;;;;;;;;;2612600;54;20539;-73
2023/10/20 09:38:52;;;;;;;8.40;7.43;;;;;;;;;;2612315;54;20909;-75
2023/10/20 09:41:21;;;;;;;9.60;7.43;;;;;;;;;;2611720;54;20422;-75
2023/10/20 09:43:48;;;;;;;7.83;7.03;;;;;;;;;;2612334;47;20434;-76
2023/10/20 09:46:20;;;;;;;8.17;6.40;;;;;;;;;;2612636;54;20399;-75
2023/10/20 09:48:47;;;;;;;9.00;6.50;;;;;;;;;;2612356;39;20911;-75
2023/10/20 09:51:15;;;;;;;7.73;6.97;;;;;;;;;;2611200;54;20412;-76
2023/10/20 09:53:42;;;;;;;8.37;7.20;;;;;;;;;;2611649;54;20419;-75
2023/10/20 09:56:09;;;;;;;8.30;6.10;;;;;;;;;;2613637;54;20419;-74
2023/10/20 09:58:36;;;;;;;6.00;5.27;;;;;;;;;;2613514;54;20415;-74
2023/10/20 10:01:03;;;;;;;6.40;5.80;;;;;;;;;;2613007;54;20422;-75
2023/10/20 10:03:37;;;;;;;7.63;6.63;;;;;;;;;;2613298;54;20420;-74
2023/10/20 10:06:08;;;;;;;7.90;6.10;;;;;;;;;;2613383;54;20423;-75
2023/10/20 10:08:37;;;;;;;6.90;6.20;;;;;;;;;;2613398;54;20407;-75
2023/10/20 10:11:17;;;;;;;7.47;6.50;;;;;;;;;;2614068;39;20918;-74
2023/10/20 10:13:43;;;;;;;6.20;5.60;;;;;;;;;;2613619;54;20400;-74
2023/10/20 10:16:13;;;;;;;7.43;5.80;;;;;;;;;;2612644;47;20416;-75
2023/10/20 10:18:50;;;;;;;6.17;5.50;;;;;;;;;;2613470;54;20446;-75
2023/10/20 10:21:30;;;;;;;6.90;5.80;;;;;;;;;;2612790;47;20443;-74
2023/10/20 10:24:11;;;;;;;7.00;5.90;;;;;;;;;;2612532;54;20415;-73
2023/10/20 10:26:47;;;;;;;7.67;6.10;;;;;;;;;;2611148;47;20415;-74
2023/10/20 10:29:13;;;;;;;7.27;6.47;;;;;;;;;;2611638;47;20546;-73
2023/10/20 10:31:40;;;;;;;6.17;5.57;;;;;;;;;;2611044;54;20432;-73
2023/10/20 10:34:06;;;;;;;6.40;5.73;;;;;;;;;;2611156;54;20416;-72
2023/10/20 10:36:48;;;;;;;8.00;6.40;;;;;;;;;;2611288;54;21413;-73
2023/10/20 10:39:21;;;;;;;6.40;5.10;;;;;;;;;;2611053;54;20473;-72
2023/10/20 10:41:47;;;;;;;6.30;5.47;;;;;;;;;;2611918;39;21276;-73
2023/10/20 10:44:13;;;;;;;5.87;5.27;;;;;;;;;;2612529;39;20909;-73
2023/10/20 10:46:39;;;;;;;7.07;6.37;;;;;;;;;;2612073;39;20816;-73
2023/10/20 10:49:12;;;;;;;6.20;5.60;;;;;;;;;;2611270;54;20422;-74
2023/10/20 10:51:46;;;;;;;6.83;5.37;;;;;;;;;;2612040;54;20388;-74
2023/10/20 10:54:12;;;;;;;5.93;5.33;;;;;;;;;;2612116;54;20407;-74
2023/10/20 10:56:38;;;;;;;7.37;5.20;;;;;;;;;;2612799;46;20855;-74
2023/10/20 10:59:04;;;;;;;6.10;5.50;;;;;;;;;;2611956;39;21459;-74
2023/10/20 11:01:32;;;;;;;8.90;5.80;;;;;;;;;;2611061;54;20399;-74
2023/10/20 11:03:58;;;;;;;8.43;6.50;;;;;;;;;;2612024;54;20419;-75
2023/10/20 11:06:24;;;;;;;7.03;6.23;;;;;;;;;;2612373;54;21342;-74
2023/10/20 11:08:51;;;;;;;6.80;6.20;;;;;;;;;;2612027;54;20466;-74
2023/10/20 11:11:18;;;;;;;6.57;5.87;;;;;;;;;;2612446;54;21020;-74
2023/10/20 11:13:45;;;;;;;7.17;6.47;;;;;;;;;;2611486;54;20411;-74
2023/10/20 11:16:13;;;;;;;6.80;6.20;;;;;;;;;;2612184;54;20398;-74
2023/10/20 11:18:44;;;;;;;7.43;6.73;;;;;;;;;;2611615;47;20435;-74
2023/10/20 11:21:14;;;;;;;8.27;7.47;;;;;;;;;;2611963;54;20412;-74
2023/10/20 11:23:40;;;;;;;7.33;6.73;;;;;;;;;;2611928;54;20406;-74
2023/10/20 11:26:20;;;;;;;7.03;6.43;;;;;;;;;;2611825;54;20530;-74
2023/10/20 11:28:46;;;;;;;8.67;6.77;;;;;;;;;;2611910;54;20542;-74
2023/10/20 11:31:13;;;;;;;7.50;6.70;;;;;;;;;;2611960;54;20636;-74
2023/10/20 11:33:39;;;;;;;7.93;7.23;;;;;;;;;;2612612;39;20765;-74
2023/10/20 11:36:06;;;;;;;7.33;6.73;;;;;;;;;;2612431;39;20815;-75
2023/10/20 11:38:33;;;;;;;7.70;6.90;;;;;;;;;;2611033;54;20427;-76
2023/10/20 11:41:00;;;;;;;8.77;7.97;;;;;;;;;;2612106;31;20981;-75
2023/10/20 11:43:26;;;;;;;8.60;7.80;;;;;;;;;;2612081;54;20419;-75
2023/10/20 11:45:53;;;;;;;8.47;7.73;;;;;;;;;;2612223;54;20411;-75
2023/10/20 11:48:19;;;;;;;9.33;8.53;;;;;;;;;;2611831;54;20458;-75
2023/10/20 11:50:45;;;;;;;7.23;6.30;;;;;;;;;;2611804;54;20477;-75
2023/10/20 11:53:12;;;;;;;7.17;6.57;;;;;;;;;;2612017;54;20454;-75
2023/10/20 11:55:39;;;;;;;6.97;6.37;;;;;;;;;;2611866;54;20455;-75
2023/10/20 11:58:05;;;;;;;8.30;7.40;;;;;;;;;;2610557;54;20388;-75
2023/10/20 12:00:32;;;;;;;8.67;6.80;;;;;;;;;;2610907;51;20408;-76
2023/10/20 12:02:58;;;;;;;6.90;6.20;;;;;;;;;;2611312;54;20402;-76
2023/10/20 12:05:24;;;;;;;6.00;5.40;;;;;;;;;;2611786;47;20403;-76
2023/10/20 12:07:51;;;;;;;7.37;6.10;;;;;;;;;;2611329;48;20416;-75
2023/10/20 12:10:17;;;;;;;11.00;6.37;;;;;;;;;;2611917;54;20400;-75
2023/10/20 12:12:43;;;;;;;8.83;6.17;;;;;;;;;;2611140;47;20431;-75
2023/10/20 12:15:11;;;;;;;7.97;6.33;;;;;;;;;;2611999;54;20921;-76
2023/10/20 12:17:40;;;;;;;5.97;5.47;;;;;;;;;;2611343;51;20961;-76
2023/10/20 12:20:08;;;;;;;7.10;6.10;;;;;;;;;;2611578;54;20435;-77
2023/10/20 12:22:34;;;;;;;6.57;5.80;;;;;;;;;;2611812;54;20498;-76
2023/10/20 12:25:00;;;;;;;6.43;5.77;;;;;;;;;;2611346;54;20419;-77
2023/10/20 12:27:26;;;;;;;7.10;6.40;;;;;;;;;;2611722;54;20427;-74
2023/10/20 12:29:52;;;;;;;7.13;6.43;;;;;;;;;;2612261;54;20419;-75
2023/10/20 12:32:19;;;;;;;6.77;6.17;;;;;;;;;;2611510;47;20498;-76
2023/10/20 12:34:45;;;;;;;6.10;5.40;;;;;;;;;;2611123;54;20443;-76
2023/10/20 12:37:10;;;;;;;7.70;5.50;;;;;;;;;;2612118;54;20415;-76
2023/10/20 12:39:39;;;;;;;6.30;5.70;;;;;;;;;;2611966;54;21054;-76
2023/10/20 12:42:05;;;;;;;6.40;5.40;;;;;;;;;;2611351;54;20432;-75
2023/10/20 12:44:33;;;;;;;5.37;4.70;;;;;;;;;;2611744;54;20411;-75
2023/10/20 12:47:00;;;;;;;5.13;4.57;;;;;;;;;;2612145;54;20427;-76
2023/10/20 12:49:26;;;;;;;5.80;5.20;;;;;;;;;;2611683;47;20412;-76
2023/10/20 12:51:52;;;;;;;6.67;5.20;;;;;;;;;;2612152;54;20411;-76
2023/10/20 12:54:18;;;;;;;6.60;5.10;;;;;;;;;;2611453;54;20503;-75
2023/10/20 12:56:44;;;;;;;5.93;5.30;;;;;;;;;;2611474;54;20427;-76
2023/10/20 12:59:11;;;;;;;8.63;5.87;;;;;;;;;;2611843;47;20451;-76
2023/10/20 13:01:37;;;;;;;5.27;4.77;;;;;;;;;;2612374;54;20412;-76
2023/10/20 13:04:07;;;;;;;7.30;5.13;;;;;;;;;;2611941;47;20519;-73
2023/10/20 13:06:33;;;;;;;6.07;4.87;;;;;;;;;;2611179;54;20427;-74
2023/10/20 13:08:59;;;;;;;6.43;4.60;;;;;;;;;;2610081;54;20419;-74
2023/10/20 13:11:25;;;;;;;6.60;5.10;;;;;;;;;;2610966;54;20423;-74
2023/10/20 13:13:51;;;;;;;7.33;5.23;;;;;;;;;;2612356;54;20396;-74
2023/10/20 13:16:17;;;;;;;5.97;5.23;;;;;;;;;;2612638;54;21012;-73
2023/10/20 13:18:43;;;;;;;7.70;6.00;;;;;;;;;;2612565;54;20958;-73
2023/10/20 13:21:10;;;;;;;6.80;5.70;;;;;;;;;;2611406;54;21123;-74
2023/10/20 13:23:37;;;;;;;5.53;4.93;;;;;;;;;;2612042;54;20419;-72
2023/10/20 13:26:04;;;;;;;6.97;5.70;;;;;;;;;;2611360;47;20526;-74
2023/10/20 13:28:31;;;;;;;6.53;5.87;;;;;;;;;;2613212;39;20766;-74
2023/10/20 13:31:03;;;;;;;6.97;5.73;;;;;;;;;;2611733;54;20519;-76
2023/10/20 13:33:29;;;;;;;6.07;5.20;;;;;;;;;;2612000;47;20961;-73
2023/10/20 13:35:55;;;;;;;6.50;5.90;;;;;;;;;;2611489;54;20452;-74
2023/10/20 13:38:21;;;;;;;8.43;6.03;;;;;;;;;;2612676;39;20814;-74
2023/10/20 13:40:47;;;;;;;7.70;6.90;;;;;;;;;;2611537;54;20426;-74
2023/10/20 13:43:14;;;;;;;6.70;5.97;;;;;;;;;;2611592;54;20470;-73
2023/10/20 13:45:41;;;;;;;7.27;6.57;;;;;;;;;;2611847;54;20415;-73
2023/10/20 13:48:07;;;;;;;7.50;6.50;;;;;;;;;;2611661;54;20499;-74
2023/10/20 13:50:33;;;;;;;8.93;6.13;;;;;;;;;;2612560;39;20776;-74
2023/10/20 13:52:59;;;;;;;8.20;6.27;;;;;;;;;;2611215;54;20416;-74
2023/10/20 13:55:25;;;;;;;6.80;6.00;;;;;;;;;;2612348;46;20478;-73
2023/10/20 13:57:51;;;;;;;7.13;6.43;;;;;;;;;;2611980;54;20422;-74
2023/10/20 14:00:18;;;;;;;7.87;5.90;;;;;;;;;;2612440;54;20411;-74
2023/10/20 14:02:46;;;;;;;11.20;6.20;;;;;;;;;;2611137;47;20388;-74
2023/10/20 14:05:18;;;;;;;10.23;6.87;;;;;;;;;;2611683;54;21519;-73
2023/10/20 14:07:44;;;;;;;7.93;6.07;;;;;;;;;;2611738;54;20438;-74
2023/10/20 14:10:11;;;;;;;10.37;8.60;;;;;;;;;;2611320;39;20687;-74
2023/10/20 14:12:37;;;;;;;8.20;7.40;;;;;;;;;;2611029;54;20502;-74
2023/10/20 14:15:04;;;;;;;7.50;6.67;;;;;;;;;;2612138;54;20379;-74
2023/10/20 14:17:30;;;;;;;5.80;5.27;;;;;;;;;;2611429;47;20457;-74
2023/10/20 14:19:56;;;;;;;5.87;5.37;;;;;;;;;;2612412;46;20855;-73
2023/10/20 14:22:22;;;;;;;9.83;7.30;;;;;;;;;;2611766;54;20412;-74
2023/10/20 14:24:48;;;;;;;7.90;6.83;;;;;;;;;;2612107;54;20507;-76
2023/10/20 14:27:14;;;;;;;9.67;7.73;;;;;;;;;;2612121;54;20503;-75
2023/10/20 14:29:40;;;;;;;8.40;7.53;;;;;;;;;;2611554;54;20431;-74
2023/10/20 14:32:06;;;;;;;9.30;8.40;;;;;;;;;;2611938;54;20522;-76
2023/10/20 14:34:33;;;;;;;9.13;8.13;;;;;;;;;;2611992;39;20799;-74
2023/10/20 14:36:59;;;;;;;8.93;7.07;;;;;;;;;;2612109;54;20419;-75
2023/10/20 14:39:25;;;;;;;7.50;6.70;;;;;;;;;;2611873;47;20428;-76
2023/10/20 14:41:51;;;;;;;11.10;8.57;;;;;;;;;;2611059;54;20422;-75
2023/10/20 14:44:18;;;;;;;11.50;8.90;;;;;;;;;;2611936;54;20450;-73
2023/10/20 14:46:44;;;;;;;11.90;10.70;;;;;;;;;;2612229;54;20395;-73
2023/10/20 14:49:11;;;;;;;10.80;9.70;;;;;;;;;;2612157;54;20518;-74
2023/10/20 14:51:37;;;;;;;12.60;11.27;;;;;;;;;;2612185;54;20438;-73
2023/10/20 14:54:05;;;;;;;14.20;12.80;;;;;;;;;;2613213;39;20799;-74
2023/10/20 14:56:32;;;;;;;14.33;12.80;;;;;;;;;;2612337;54;20486;-74
2023/10/20 14:58:58;;;;;;;14.60;10.33;;;;;;;;;;2611510;54;20468;-73
2023/10/20 15:01:26;;;;;;;9.20;8.13;;;;;;;;;;2611363;54;20412;-73
2023/10/20 15:03:52;;;;;;;10.23;9.23;;;;;;;;;;2611369;47;21378;-73
2023/10/20 15:06:18;;;;;;;13.57;9.23;;;;;;;;;;2612215;54;20403;-73
2023/10/20 15:08:44;;;;;;;9.00;6.93;;;;;;;;;;2612011;54;20412;-72
2023/10/20 15:11:11;;;;;;;7.83;6.40;;;;;;;;;;2612202;54;20391;-74